Pays
Station

 

Conditions  météo  pour  Andravida Airport  -  Grèce    Grèce

  
22 °C
    
 
 

METAR pour Andravida Airport :

LGAD 180020Z 00000KT 9999 FEW020 22/20 Q1008

 

Voici le bulletin pour Andravida Airport - Grèce.
 
Le bulletin a été fait il y a 22 minutes, à 00:20 UTC .
Le vent était calme.
 
La température était de 22 °C, avec un point de rosée à 20 °C.
La température ressentie était de 21 °C.
 
La pression atmosphérique était de 1008 hPa.
L'humidité relative était de 88.4%.
 
Il y avait 1 à 2/8ème de nébulosité à une hauteur de 610 mètres.
 
La visibilité globale était de supérieure à 10 kilomètres.
 

 
 
 

Pays :   A   B   C   D   E   F   G   H   I   J   K   L   M   N   O   P   Q   R   S   T   U   V   W   Y   Z

 

Partenaires :  Info Météo avec Met'info
Météo Marine avec MeteoMarine.net
Infos Site  |  Infos Légales  |  Crédits  |  Confidentialité
Contactez-nous  |  Ajouter aux favoris
© 2013-2018 METAR - Tous droits réservés